createdAt,value
2019-03-27T00:01:35.391Z,23.87
2019-03-27T00:04:07.732Z,23.53
2019-03-27T00:06:40.987Z,21.40
2019-03-27T00:09:14.765Z,25.30
2019-03-27T00:11:47.104Z,23.07
2019-03-27T00:14:19.317Z,26.20
2019-03-27T00:16:51.718Z,24.83
2019-03-27T00:19:23.947Z,20.23
2019-03-27T00:21:56.287Z,35.43
2019-03-27T00:24:28.703Z,20.20
2019-03-27T00:27:00.967Z,17.90
2019-03-27T00:29:33.400Z,27.03
2019-03-27T00:32:05.988Z,21.93
2019-03-27T00:34:38.434Z,20.87
2019-03-27T00:37:10.722Z,24.60
2019-03-27T00:39:43.297Z,17.57
2019-03-27T00:42:15.725Z,20.90
2019-03-27T00:44:48.254Z,27.43
2019-03-27T00:47:20.616Z,19.37
2019-03-27T00:49:52.899Z,25.40
2019-03-27T00:52:25.131Z,20.70
2019-03-27T00:54:57.400Z,22.03
2019-03-27T00:57:29.783Z,25.10
2019-03-27T01:00:02.118Z,25.20
2019-03-27T01:02:35.973Z,22.33
2019-03-27T01:05:08.427Z,21.27
2019-03-27T01:07:40.808Z,20.90
2019-03-27T01:10:13.182Z,23.70
2019-03-27T01:12:45.690Z,21.73
2019-03-27T01:15:17.953Z,17.93
2019-03-27T01:17:50.205Z,28.53
2019-03-27T01:20:22.569Z,18.23
2019-03-27T01:22:54.810Z,21.63
2019-03-27T01:25:27.149Z,21.67
2019-03-27T01:27:59.642Z,22.20
2019-03-27T01:30:31.964Z,30.03
2019-03-27T01:33:04.458Z,16.13
2019-03-27T01:35:36.714Z,19.57
2019-03-27T01:38:09.049Z,17.73
2019-03-27T01:40:41.738Z,22.10
2019-03-27T01:43:14.318Z,27.30
2019-03-27T01:45:52.834Z,16.67
2019-03-27T01:48:20.829Z,21.60
2019-03-27T01:50:55.058Z,14.53
2019-03-27T01:53:27.719Z,17.53
2019-03-27T01:56:00.057Z,20.33
2019-03-27T01:58:32.667Z,22.50
2019-03-27T02:01:04.904Z,20.43
2019-03-27T02:03:37.237Z,22.00
2019-03-27T02:06:09.752Z,20.23
2019-03-27T02:08:42.025Z,20.40
2019-03-27T02:11:14.314Z,22.00
2019-03-27T02:13:46.590Z,23.10
2019-03-27T02:16:18.865Z,16.57
2019-03-27T02:18:51.211Z,17.50
2019-03-27T02:21:23.492Z,20.03
2019-03-27T02:23:55.648Z,16.57
2019-03-27T02:26:27.935Z,23.53
2019-03-27T02:29:00.284Z,16.10
2019-03-27T02:31:32.474Z,18.07
2019-03-27T02:34:04.947Z,19.80
2019-03-27T02:36:37.123Z,16.73
2019-03-27T02:39:09.432Z,12.07
2019-03-27T02:41:41.669Z,17.90
2019-03-27T02:44:14.045Z,15.10
2019-03-27T02:46:46.345Z,17.83
2019-03-27T02:49:19.238Z,19.27
2019-03-27T02:51:51.737Z,9.73
2019-03-27T02:54:24.204Z,20.37
2019-03-27T02:56:56.594Z,21.30
2019-03-27T02:59:28.872Z,15.07
2019-03-27T03:02:01.321Z,23.27
2019-03-27T03:04:33.774Z,22.63
2019-03-27T03:07:06.322Z,19.03
2019-03-27T03:09:39.609Z,18.70
2019-03-27T03:12:11.982Z,17.80
2019-03-27T03:14:44.325Z,17.03
2019-03-27T03:17:16.635Z,20.33
2019-03-27T03:19:48.980Z,15.77
2019-03-27T03:22:21.691Z,19.80
2019-03-27T03:24:54.021Z,20.70
2019-03-27T03:27:26.298Z,17.83
2019-03-27T03:29:58.599Z,17.40
2019-03-27T03:32:30.844Z,17.53
2019-03-27T03:35:03.249Z,19.83
2019-03-27T03:37:35.503Z,16.70
2019-03-27T03:40:07.846Z,17.80
2019-03-27T03:42:40.356Z,16.30
2019-03-27T03:45:12.646Z,20.73
2019-03-27T03:47:44.900Z,17.23
2019-03-27T03:50:17.564Z,17.87
2019-03-27T03:52:50.042Z,23.57
2019-03-27T03:55:22.149Z,15.33
2019-03-27T03:57:54.383Z,26.23
2019-03-27T04:00:27.002Z,16.23
2019-03-27T04:02:59.315Z,16.73
2019-03-27T04:05:31.735Z,26.30
2019-03-27T04:08:04.220Z,15.67
2019-03-27T04:10:36.393Z,17.43
2019-03-27T04:13:08.653Z,16.50
2019-03-27T04:15:40.962Z,21.13
2019-03-27T04:18:13.333Z,17.23
2019-03-27T04:20:45.641Z,23.80
2019-03-27T04:23:17.980Z,21.40
2019-03-27T04:26:11.722Z,23.20
2019-03-27T04:28:24.400Z,17.40
2019-03-27T04:30:56.765Z,19.10
2019-03-27T04:33:28.998Z,21.20
2019-03-27T04:36:01.502Z,19.53
2019-03-27T04:38:33.721Z,18.33
2019-03-27T04:41:06.069Z,24.77
2019-03-27T04:43:40.469Z,23.67
2019-03-27T04:46:13.860Z,19.40
2019-03-27T04:48:47.023Z,24.13
2019-03-27T04:51:19.327Z,18.33
2019-03-27T04:53:51.572Z,22.97
2019-03-27T04:56:23.873Z,20.63
2019-03-27T04:58:56.188Z,19.70
2019-03-27T05:01:28.552Z,21.80
2019-03-27T05:04:00.818Z,23.40
2019-03-27T05:06:33.160Z,29.10
2019-03-27T05:09:05.634Z,22.60
2019-03-27T05:11:37.904Z,22.43
2019-03-27T05:14:10.261Z,27.23
2019-03-27T05:16:42.540Z,15.63
2019-03-27T05:19:14.824Z,18.37
2019-03-27T05:21:47.049Z,18.83
2019-03-27T05:24:19.345Z,23.20
2019-03-27T05:26:51.719Z,22.33
2019-03-27T05:29:24.100Z,21.90
2019-03-27T05:31:56.568Z,21.60
2019-03-27T05:34:28.847Z,20.33
2019-03-27T05:37:01.199Z,20.93
2019-03-27T05:39:33.476Z,19.93
2019-03-27T05:42:06.069Z,26.50
2019-03-27T05:44:38.270Z,22.47
2019-03-27T05:47:10.645Z,18.97
2019-03-27T05:49:42.914Z,19.00
2019-03-27T05:52:15.347Z,18.10
2019-03-27T05:54:48.071Z,18.63
2019-03-27T05:57:20.744Z,30.60
2019-03-27T05:59:53.308Z,21.00
2019-03-27T06:02:25.778Z,18.23
2019-03-27T06:04:58.122Z,22.40
2019-03-27T06:07:30.425Z,19.10
2019-03-27T06:10:02.952Z,18.17
2019-03-27T06:12:35.580Z,22.20
2019-03-27T06:15:07.897Z,22.40
2019-03-27T06:17:40.415Z,18.53
2019-03-27T06:20:12.696Z,25.53
2019-03-27T06:22:45.063Z,24.67
2019-03-27T06:25:17.335Z,19.87
2019-03-27T06:27:49.696Z,25.47
2019-03-27T06:30:22.002Z,24.83
2019-03-27T06:32:54.414Z,25.23
2019-03-27T06:35:26.749Z,30.33
2019-03-27T06:37:59.169Z,23.43
2019-03-27T06:40:31.704Z,27.30
2019-03-27T06:43:04.608Z,25.37
2019-03-27T06:45:38.972Z,28.93
2019-03-27T06:48:11.338Z,29.63
2019-03-27T06:50:44.365Z,27.83
2019-03-27T06:53:19.638Z,27.43
2019-03-27T06:55:53.111Z,23.53
2019-03-27T06:58:25.943Z,28.03
2019-03-27T07:00:58.357Z,21.87
2019-03-27T07:03:30.759Z,29.07
2019-03-27T07:06:06.027Z,22.50
2019-03-27T07:08:38.468Z,20.77
2019-03-27T07:11:11.342Z,25.83
2019-03-27T07:13:43.767Z,29.03
2019-03-27T07:16:16.145Z,23.40
2019-03-27T07:18:48.538Z,28.73
2019-03-27T07:21:21.191Z,24.70
2019-03-27T07:23:53.541Z,23.00
2019-03-27T07:26:25.821Z,23.60
2019-03-27T07:28:58.705Z,23.10
2019-03-27T07:31:36.590Z,26.83
2019-03-27T07:34:09.393Z,23.30
2019-03-27T07:36:42.447Z,24.27
2019-03-27T07:39:15.082Z,16.63
2019-03-27T07:41:47.730Z,20.67
2019-03-27T07:44:20.210Z,22.00
2019-03-27T07:46:52.683Z,23.57
2019-03-27T07:49:27.298Z,21.50
2019-03-27T07:51:59.847Z,22.97
2019-03-27T07:54:32.270Z,19.97
2019-03-27T07:57:04.684Z,18.97
2019-03-27T07:59:37.100Z,17.17
2019-03-27T08:02:09.581Z,18.10
2019-03-27T08:04:42.221Z,14.00
2019-03-27T08:07:26.252Z,15.83
2019-03-27T08:09:50.345Z,17.00
2019-03-27T08:12:22.720Z,17.50
2019-03-27T08:14:57.733Z,18.83
2019-03-27T08:17:34.013Z,14.23
2019-03-27T08:20:07.013Z,18.30
2019-03-27T08:22:41.978Z,17.87
2019-03-27T08:25:14.722Z,20.40
2019-03-27T08:27:46.993Z,17.90
2019-03-27T08:30:19.347Z,19.50
2019-03-27T08:32:51.900Z,18.90
2019-03-27T08:35:24.318Z,17.03
2019-03-27T08:37:56.722Z,16.47
2019-03-27T08:40:31.900Z,13.43
2019-03-27T08:43:04.236Z,14.83
2019-03-27T08:45:36.825Z,12.33
2019-03-27T08:48:10.649Z,11.57
2019-03-27T08:50:43.170Z,13.07
2019-03-27T08:53:16.165Z,11.50
2019-03-27T08:55:48.552Z,13.03
2019-03-27T08:58:20.909Z,12.13
2019-03-27T09:00:53.257Z,11.90
2019-03-27T09:03:25.717Z,9.93
2019-03-27T09:05:57.964Z,11.70
2019-03-27T09:08:30.328Z,9.43
2019-03-27T09:11:04.675Z,8.53
2019-03-27T09:13:36.622Z,8.67
2019-03-27T09:16:09.023Z,10.70
2019-03-27T09:18:41.680Z,6.47
2019-03-27T09:21:14.235Z,6.70
2019-03-27T09:23:46.497Z,11.37
2019-03-27T09:26:18.761Z,14.13
2019-03-27T09:28:51.254Z,8.83
2019-03-27T09:31:23.561Z,8.13
2019-03-27T09:33:55.989Z,9.30
2019-03-27T09:36:28.232Z,7.13
2019-03-27T09:39:00.453Z,9.70
2019-03-27T09:41:34.455Z,12.70
2019-03-27T09:44:06.642Z,11.97
2019-03-27T09:46:38.875Z,12.33
2019-03-27T09:49:11.181Z,11.77
2019-03-27T09:51:43.668Z,14.23
2019-03-27T09:54:15.881Z,18.53
2019-03-27T09:56:48.102Z,14.03
2019-03-27T09:59:20.475Z,15.03
2019-03-27T10:01:52.917Z,14.77
2019-03-27T10:04:25.224Z,12.87
2019-03-27T10:06:57.494Z,13.90
2019-03-27T10:09:31.797Z,10.53
2019-03-27T10:12:04.059Z,10.50
2019-03-27T10:14:36.325Z,9.27
2019-03-27T10:17:08.580Z,9.43
2019-03-27T10:19:41.053Z,10.77
2019-03-27T10:22:13.613Z,9.43
2019-03-27T10:24:45.804Z,11.90
2019-03-27T10:27:17.900Z,15.90
2019-03-27T10:29:50.186Z,12.33
2019-03-27T10:32:22.447Z,13.27
2019-03-27T10:34:54.764Z,14.07
2019-03-27T10:37:27.071Z,10.87
2019-03-27T10:39:59.383Z,12.37
2019-03-27T10:42:31.690Z,13.63
2019-03-27T10:45:03.995Z,9.07
2019-03-27T10:47:36.646Z,13.27
2019-03-27T10:50:17.672Z,10.03
2019-03-27T10:52:43.338Z,10.63
2019-03-27T10:55:16.502Z,14.13
2019-03-27T10:57:48.881Z,12.87
2019-03-27T11:00:21.336Z,9.83
2019-03-27T11:02:53.657Z,13.37
2019-03-27T11:05:26.332Z,12.70
2019-03-27T11:07:58.634Z,14.30
2019-03-27T11:10:30.917Z,11.33
2019-03-27T11:13:03.344Z,11.70
2019-03-27T11:15:35.641Z,17.37
2019-03-27T11:18:07.929Z,14.20
2019-03-27T11:20:40.452Z,13.20
2019-03-27T11:23:13.274Z,11.67
2019-03-27T11:25:45.728Z,17.87
2019-03-27T11:28:17.981Z,20.53
2019-03-27T11:30:50.483Z,15.10
2019-03-27T11:33:22.771Z,12.50
2019-03-27T11:35:55.099Z,14.67
2019-03-27T11:38:27.300Z,16.73
2019-03-27T11:40:59.569Z,15.53
2019-03-27T11:43:33.203Z,14.57
2019-03-27T11:46:05.450Z,14.30
2019-03-27T11:48:37.806Z,15.17
2019-03-27T11:51:10.180Z,12.27
2019-03-27T11:53:42.545Z,13.90
2019-03-27T11:56:14.932Z,15.10
2019-03-27T11:58:47.190Z,13.17
2019-03-27T12:01:19.804Z,14.47
2019-03-27T12:03:52.166Z,14.23
2019-03-27T12:06:24.701Z,19.83
2019-03-27T12:08:56.975Z,15.57
2019-03-27T12:11:29.227Z,12.10
2019-03-27T12:14:01.441Z,13.93
2019-03-27T12:16:33.971Z,19.57
2019-03-27T12:19:06.287Z,12.57
2019-03-27T12:21:38.845Z,14.47
2019-03-27T12:24:11.405Z,14.13
2019-03-27T12:26:44.040Z,15.10
2019-03-27T12:29:18.228Z,15.40
2019-03-27T12:31:50.393Z,17.70
2019-03-27T12:34:23.798Z,15.43
2019-03-27T12:36:56.260Z,13.67
2019-03-27T12:39:28.496Z,14.70
2019-03-27T12:42:00.821Z,15.90
2019-03-27T12:44:33.382Z,12.97
2019-03-27T12:47:05.724Z,13.70
2019-03-27T12:49:38.293Z,16.27
2019-03-27T12:52:10.720Z,13.63
2019-03-27T12:54:42.998Z,16.07
2019-03-27T12:57:15.314Z,19.20
2019-03-27T12:59:47.833Z,15.17
2019-03-27T13:02:20.052Z,14.10
2019-03-27T13:04:52.771Z,19.03
2019-03-27T13:07:25.146Z,14.67
2019-03-27T13:09:57.599Z,15.43
2019-03-27T13:12:30.100Z,13.97
2019-03-27T13:15:02.327Z,16.23
2019-03-27T13:17:34.637Z,14.47
2019-03-27T13:20:06.938Z,20.70
2019-03-27T13:22:41.437Z,15.97
2019-03-27T13:25:14.052Z,12.07
2019-03-27T13:27:47.637Z,12.87
2019-03-27T13:30:20.107Z,13.03
2019-03-27T13:32:52.335Z,16.60
2019-03-27T13:35:26.673Z,13.23
2019-03-27T13:37:59.042Z,13.90
2019-03-27T13:40:31.305Z,15.60
2019-03-27T13:43:03.618Z,14.67
2019-03-27T13:45:35.899Z,15.33
2019-03-27T13:48:08.223Z,16.90
2019-03-27T13:50:40.474Z,13.57
2019-03-27T13:53:13.832Z,17.67
2019-03-27T13:55:46.158Z,14.37
2019-03-27T13:58:18.362Z,16.23
2019-03-27T14:00:50.618Z,17.93
2019-03-27T14:03:23.943Z,17.80
2019-03-27T14:05:56.512Z,12.37
2019-03-27T14:08:28.786Z,16.07
2019-03-27T14:11:01.131Z,14.90
2019-03-27T14:13:33.623Z,11.37
2019-03-27T14:16:08.170Z,17.43
2019-03-27T14:18:40.499Z,12.97
2019-03-27T14:21:12.794Z,13.60
2019-03-27T14:23:45.137Z,11.50
2019-03-27T14:26:17.417Z,22.03
2019-03-27T14:28:49.810Z,14.53
2019-03-27T14:31:23.090Z,14.03
2019-03-27T14:33:55.366Z,12.77
2019-03-27T14:36:27.787Z,14.47
2019-03-27T14:39:00.024Z,13.73
2019-03-27T14:41:32.343Z,8.90
2019-03-27T14:44:04.903Z,13.27
2019-03-27T14:46:37.123Z,8.50
2019-03-27T14:49:10.444Z,9.93
2019-03-27T14:51:42.771Z,10.87
2019-03-27T14:54:15.074Z,13.20
2019-03-27T14:56:48.037Z,13.50
2019-03-27T14:59:20.247Z,8.63
2019-03-27T15:01:52.464Z,9.20
2019-03-27T15:04:24.782Z,10.53
2019-03-27T15:06:57.348Z,10.10
2019-03-27T15:09:29.593Z,11.30
2019-03-27T15:12:01.926Z,11.63
2019-03-27T15:14:34.233Z,11.90
2019-03-27T15:17:06.564Z,10.83
2019-03-27T15:19:41.113Z,16.60
2019-03-27T15:22:22.481Z,11.27
2019-03-27T15:24:47.681Z,9.50
2019-03-27T15:27:19.920Z,13.60
2019-03-27T15:29:54.414Z,8.17
2019-03-27T15:32:26.759Z,12.20
2019-03-27T15:34:59.134Z,11.13
2019-03-27T15:37:31.762Z,12.10
2019-03-27T15:40:05.157Z,14.70
2019-03-27T15:42:39.873Z,8.60
2019-03-27T15:45:12.466Z,11.23
2019-03-27T15:47:44.848Z,11.47
2019-03-27T15:50:17.247Z,12.90
2019-03-27T15:52:49.590Z,11.13
2019-03-27T15:55:21.999Z,12.23
2019-03-27T15:57:54.277Z,10.20
2019-03-27T16:00:26.789Z,12.33
2019-03-27T16:02:59.110Z,8.20
2019-03-27T16:05:31.689Z,12.50
2019-03-27T16:08:04.064Z,8.93
2019-03-27T16:10:36.651Z,10.87
2019-03-27T16:13:08.988Z,7.87
2019-03-27T16:15:41.420Z,10.40
2019-03-27T16:18:16.612Z,7.40
2019-03-27T16:20:47.729Z,7.80
2019-03-27T16:23:20.268Z,7.43
2019-03-27T16:25:52.635Z,5.53
2019-03-27T16:28:24.884Z,8.97
2019-03-27T16:30:57.218Z,10.63
2019-03-27T16:33:29.508Z,11.10
2019-03-27T16:36:02.116Z,7.77
2019-03-27T16:38:34.503Z,8.63
2019-03-27T16:41:06.835Z,9.27
2019-03-27T16:43:39.041Z,6.70
2019-03-27T16:46:11.518Z,7.97
2019-03-27T16:48:44.206Z,6.83
2019-03-27T16:51:16.538Z,6.10
2019-03-27T16:53:49.338Z,7.00
2019-03-27T16:56:21.659Z,7.73
2019-03-27T16:58:54.011Z,7.77
2019-03-27T17:01:26.417Z,7.07
2019-03-27T17:03:58.868Z,8.63
2019-03-27T17:06:31.168Z,10.30
2019-03-27T17:09:03.888Z,8.60
2019-03-27T17:11:36.556Z,11.17
2019-03-27T17:14:10.698Z,10.07
2019-03-27T17:16:43.555Z,11.07
2019-03-27T17:19:15.968Z,10.67
2019-03-27T17:21:48.403Z,18.83
2019-03-27T17:24:20.817Z,20.20
2019-03-27T17:26:53.156Z,19.50
2019-03-27T17:29:26.978Z,19.93
2019-03-27T17:31:59.280Z,13.87
2019-03-27T17:34:31.771Z,18.17
2019-03-27T17:37:04.298Z,13.17
2019-03-27T17:39:37.154Z,14.50
2019-03-27T17:42:09.968Z,14.87
2019-03-27T17:44:42.433Z,14.00
2019-03-27T17:47:14.937Z,10.93
2019-03-27T17:49:47.352Z,14.03
2019-03-27T17:52:20.157Z,15.10
2019-03-27T17:54:53.234Z,17.00
2019-03-27T17:57:25.704Z,14.90
2019-03-27T17:59:58.024Z,20.57
2019-03-27T18:02:30.814Z,21.13
2019-03-27T18:05:04.739Z,22.60
2019-03-27T18:07:37.018Z,19.20
2019-03-27T18:10:10.042Z,20.10
2019-03-27T18:12:42.643Z,19.00
2019-03-27T18:15:15.121Z,20.93
2019-03-27T18:17:47.931Z,17.40
2019-03-27T18:20:22.892Z,19.03
2019-03-27T18:22:56.191Z,20.80
2019-03-27T18:25:28.625Z,16.33
2019-03-27T18:28:00.959Z,20.70
2019-03-27T18:30:34.034Z,17.53
2019-03-27T18:33:06.421Z,17.43
2019-03-27T18:35:38.995Z,20.60
2019-03-27T18:38:11.670Z,18.77
2019-03-27T18:40:44.095Z,16.40
2019-03-27T18:43:17.818Z,17.73
2019-03-27T18:45:51.710Z,17.60
2019-03-27T18:48:27.615Z,17.80
2019-03-27T18:51:01.167Z,21.73
2019-03-27T18:53:35.477Z,22.67
2019-03-27T18:56:08.155Z,18.40
2019-03-27T18:58:41.234Z,21.03
2019-03-27T19:01:13.612Z,22.00
2019-03-27T19:03:46.268Z,22.13
2019-03-27T19:06:18.633Z,15.37
2019-03-27T19:08:51.008Z,19.20
2019-03-27T19:11:23.209Z,16.00
2019-03-27T19:13:55.449Z,18.23
2019-03-27T19:16:27.921Z,22.63
2019-03-27T19:19:00.170Z,16.57
2019-03-27T19:21:33.557Z,16.20
2019-03-27T19:24:14.787Z,22.17
2019-03-27T19:26:41.022Z,19.60
2019-03-27T19:29:13.862Z,15.27
2019-03-27T19:31:46.515Z,17.10
2019-03-27T19:34:19.169Z,19.00
2019-03-27T19:36:51.648Z,19.03
2019-03-27T19:39:26.266Z,20.57
2019-03-27T19:41:58.794Z,17.60
2019-03-27T19:44:31.203Z,15.17
2019-03-27T19:47:03.588Z,16.00
2019-03-27T19:49:36.278Z,23.87
2019-03-27T19:52:09.021Z,17.77
2019-03-27T19:54:41.430Z,22.23
2019-03-27T19:57:13.884Z,20.07
2019-03-27T19:59:46.433Z,21.93
2019-03-27T20:02:18.826Z,20.03
2019-03-27T20:04:51.097Z,17.63
2019-03-27T20:07:35.324Z,21.17
2019-03-27T20:09:57.351Z,16.57
2019-03-27T20:12:29.657Z,19.53
2019-03-27T20:15:11.737Z,18.47
2019-03-27T20:17:36.469Z,24.60
2019-03-27T20:20:09.865Z,18.20
2019-03-27T20:22:42.234Z,24.80
2019-03-27T20:25:15.009Z,24.73
2019-03-27T20:27:47.441Z,23.47
2019-03-27T20:30:21.079Z,25.20
2019-03-27T20:32:53.419Z,20.90
2019-03-27T20:35:25.653Z,24.00
2019-03-27T20:37:57.982Z,25.10
2019-03-27T20:40:30.322Z,22.60
2019-03-27T20:43:02.803Z,22.87
2019-03-27T20:45:35.094Z,20.90
2019-03-27T20:48:07.509Z,21.90
2019-03-27T20:50:39.755Z,26.70
2019-03-27T20:53:12.124Z,28.20
2019-03-27T20:55:44.549Z,35.50
2019-03-27T20:58:16.819Z,33.67
2019-03-27T21:00:49.135Z,30.83
2019-03-27T21:03:21.592Z,36.13
2019-03-27T21:05:54.034Z,36.70
2019-03-27T21:08:26.408Z,31.07
2019-03-27T21:10:58.812Z,29.23
2019-03-27T21:13:31.161Z,29.77
2019-03-27T21:16:03.592Z,40.60
2019-03-27T21:18:36.132Z,31.50
2019-03-27T21:21:08.435Z,36.10
2019-03-27T21:23:40.676Z,30.17
2019-03-27T21:26:12.904Z,31.93
2019-03-27T21:28:45.402Z,31.07
2019-03-27T21:31:17.609Z,28.13
2019-03-27T21:33:49.841Z,29.20
2019-03-27T21:36:22.297Z,26.87
2019-03-27T21:38:54.831Z,32.37
2019-03-27T21:41:27.238Z,31.67
2019-03-27T21:43:59.781Z,36.80
2019-03-27T21:46:32.129Z,34.90
2019-03-27T21:49:04.480Z,32.87
2019-03-27T21:51:36.729Z,32.93
2019-03-27T21:54:09.289Z,40.30
2019-03-27T21:56:41.847Z,36.03
2019-03-27T21:59:14.123Z,35.33
2019-03-27T22:01:46.374Z,35.73
2019-03-27T22:04:18.688Z,37.50
2019-03-27T22:06:50.991Z,34.40
2019-03-27T22:09:23.188Z,40.27
2019-03-27T22:11:55.483Z,36.17
2019-03-27T22:14:28.084Z,42.07
2019-03-27T22:17:00.534Z,38.93
2019-03-27T22:19:32.939Z,37.07
2019-03-27T22:22:05.371Z,39.77
2019-03-27T22:24:37.724Z,39.57
2019-03-27T22:27:09.905Z,44.63
2019-03-27T22:29:42.216Z,36.33
2019-03-27T22:32:14.492Z,43.53
2019-03-27T22:34:46.802Z,41.97
2019-03-27T22:37:19.078Z,47.60
2019-03-27T22:39:51.389Z,45.43
2019-03-27T22:42:24.752Z,39.40
2019-03-27T22:44:57.241Z,42.07
2019-03-27T22:47:30.147Z,42.97
2019-03-27T22:50:03.213Z,41.23
2019-03-27T22:52:35.814Z,44.20
2019-03-27T22:55:08.223Z,42.27
2019-03-27T22:57:40.955Z,43.20
2019-03-27T23:00:13.421Z,40.70
2019-03-27T23:02:47.544Z,42.53
2019-03-27T23:05:19.966Z,42.70
2019-03-27T23:07:52.702Z,40.07
2019-03-27T23:10:25.150Z,46.30
2019-03-27T23:12:57.632Z,44.73
2019-03-27T23:15:29.946Z,52.23
2019-03-27T23:18:02.243Z,44.90
2019-03-27T23:20:34.825Z,52.70
2019-03-27T23:23:07.116Z,44.10
2019-03-27T23:25:39.430Z,49.43
2019-03-27T23:28:11.932Z,43.43
2019-03-27T23:30:44.446Z,45.93
2019-03-27T23:33:20.357Z,54.97
2019-03-27T23:35:54.296Z,44.23
2019-03-27T23:38:26.748Z,49.07
2019-03-27T23:40:59.563Z,47.30
2019-03-27T23:43:31.898Z,49.60
2019-03-27T23:46:04.612Z,49.40
2019-03-27T23:48:37.193Z,52.93
2019-03-27T23:51:09.490Z,56.37
2019-03-27T23:53:41.739Z,60.00
2019-03-27T23:56:16.730Z,45.43
2019-03-27T23:58:47.982Z,43.47
